Feedback

Interesting keywords for .com

RANK DEFAULT KEYWORD DOMAIN
Check rank of a specific keyword (10 credits) Please log in to use this feature.
Keyword Last Crawl Search Volume CPC Commercial Value Last Update of Volume/CPC SEO Difficulty (beta) KEI (beta) Last Update of
SEO Difficulty & KEI
saas marketing 2019-04-25 02:32 480 $10.09 76 2019-04-01 218 35 2019-03-08
small business seo 2019-04-25 02:32 1900 $18.69 217 2019-04-12 348 62 2019-04-15
dui lawyer los angeles 2019-04-24 23:42 1000 $107.01 442 2019-03-26 221 200 2019-04-15
honlapkeszites 2019-04-24 23:42 0 $0.00 0 2019-04-17 186 2019-04-19
new slot sites 2019-04-24 19:22 590 $0.00 0 2019-04-04 85 2019-04-23
digital marketing 2019-04-24 16:42 40500 $10.77 924 2019-04-21 635 146 2019-04-23
digital marketing kenya 2019-04-24 16:42 30 $0.00 0 2019-04-21 50 2019-04-23
steroids canada 2019-04-24 14:42 390 $0.53 12 2019-03-31 222 5 2019-04-13
personalised baby grows 2019-04-24 14:42 10 $1.29 11 2019-03-21 166 7 2019-04-13
consolidate 2019-04-24 11:42 110000 $16.99 2208 2019-04-21 619 357 2019-04-14
ppc 2019-04-24 11:42 18100 $14.97 697 2019-04-21 623 112 2019-04-17
credit card debt consolidation 2019-04-24 11:42 12100 $29.40 823 2019-04-21 291 283 2019-03-14
what is sem 2019-04-24 11:42 2400 $7.58 144 2019-04-21 411 35 2019-03-22
seo services new york 2019-04-24 11:22 1000 $20.66 165 2019-04-21 217 76 2019-04-14
internet service 2019-04-24 11:22 90500 $11.30 1538 2019-04-21 432 356 2019-04-08
seo services los angeles 2019-04-24 11:22 2400 $14.88 215 2019-04-21 229 94 2019-03-13
seo services company 2019-04-24 11:22 2400 $30.53 331 2019-04-21 203 163 2019-03-21
isp speed test 2019-04-24 11:22 4400 $4.67 151 2019-04-21 1000 15 2019-04-09
seo services 2019-04-24 11:22 9900 $26.71 691 2019-04-21 288 240 2019-04-05
what is isp 2019-04-24 11:22 9900 $7.66 326 2019-04-21 418 78 2019-03-13
seo website 2019-04-24 11:22 2900 $10.96 199 2019-04-21 688 29 2019-04-14
seo search engine optimization 2019-04-24 11:22 880 $15.08 128 2019-04-21 1000 13 2019-04-19
conference 2019-04-24 11:22 49500 $1.54 324 2019-04-21 609 53 2019-04-07
alanya apartment 2019-04-24 11:22 0 $0.00 0 2019-03-20 106 2019-02-25
local seo agency 2019-04-24 11:22 480 $19.62 114 2019-04-21 252 45 2019-04-12
best seo company 2019-04-24 11:22 2900 $28.59 354 2019-04-21 456 78 2019-04-17
chapter 7 bankruptcy 2019-04-24 11:22 60500 $14.73 1417 2019-04-21 327 433 2019-03-13
what is seo 2019-04-24 11:22 14800 $4.70 309 2019-04-21 806 38 2019-03-23
chapter 13 bankruptcy 2019-04-24 11:22 40500 $13.59 1062 2019-04-21 402 264 2019-04-12
los angeles personal injury attorney 2019-04-24 11:22 3600 $125.77 973 2019-04-21 228 427 2019-04-19
los angeles seo consultant 2019-04-24 11:22 320 $17.41 90 2019-04-21 234 38 2019-03-23
personal injury lawyer near me 2019-04-24 11:22 4400 $114.68 1033 2019-04-21 270 383 2019-03-18
google search engine optimization 2019-04-24 11:22 880 $12.02 112 2019-04-21 875 13 2019-03-22
online casino 2019-04-24 11:22 74000 $2.40 538 2019-04-21 493 109 2019-03-17
personal injury attorney west palm beach 2019-04-24 11:22 720 $86.61 332 2019-04-21 118 281 2019-03-22
roulette 2019-04-24 11:22 60500 $2.45 483 2019-04-21 324 149 2019-04-17
west palm beach personal injury lawyer 2019-04-24 11:22 720 $128.52 421 2019-04-21 134 314 2019-03-23
car insurance quotes 2019-04-24 11:22 301000 $79.69 10204 2019-04-21 668 1528 2019-02-16
weight loss 2019-04-24 11:22 165000 $2.96 987 2019-04-21 764 129 2019-04-12
cheap health insurance 2019-04-24 11:22 27100 $7.36 579 2019-04-21 520 111 2019-03-20
best way to lose weight 2019-04-24 11:22 40500 $2.21 357 2019-04-21 699 51 2019-03-19
health insurance new york 2019-04-24 11:22 18100 $5.12 366 2019-04-21 297 123 2019-03-13
weight loss meal plan 2019-04-24 11:22 40500 $3.03 432 2019-04-21 536 81 2019-04-14
health insurance florida 2019-04-24 11:22 18100 $8.80 507 2019-04-21 296 171 2019-04-23
fastest way to lose weight 2019-04-24 11:22 40500 $2.29 365 2019-04-21 627 58 2019-03-22
home alarms 2019-04-24 11:22 1300 $23.95 206 2019-04-21 636 32 2019-04-13
personal loan 2019-04-24 11:22 49500 $13.37 1186 2019-04-21 464 256 2019-03-22
car loan calculator 2019-04-24 11:22 550000 $2.56 2019-04-21 424 2019-04-08
home security 2019-04-24 11:22 40500 $39.50 2015 2019-04-21 350 576 2019-04-11
home loan calculator 2019-04-24 11:22 60500 $7.34 933 2019-04-21 908 103 2019-03-22
home surveillance systems 2019-04-24 11:22 9900 $4.19 227 2019-04-21 523 43 2019-03-22
va home loan 2019-04-24 11:22 27100 $85.02 2512 2019-04-21 671 374 2019-03-18
wireless security system 2019-04-24 11:22 12100 $11.08 458 2019-04-21 382 120 2019-03-22
bad credit home loans 2019-04-24 11:22 22200 $4.79 397 2019-04-21 276 144 2019-03-20
home security system 2019-04-24 11:22 14800 $30.83 954 2019-04-21 496 192 2019-04-06
wireless camera 2019-04-24 11:22 22200 $2.93 296 2019-04-21 490 60 2019-04-22
domain data 2019-04-24 11:22 90 $2.20 18 2019-04-22 451 4 2019-03-21
mortgage calculator 2019-04-24 11:22 2240000 $3.13 2019-04-21 808 2019-04-24
wireless outdoor security cameras 2019-04-24 11:22 18100 $3.24 278 2019-04-21 464 60 2019-04-12
personal injury lawyer 2019-04-24 11:22 33100 $133.40 3708 2019-04-22 405 916 2019-03-21
debt consolidation loan 2019-04-24 11:22 74000 $31.70 2532 2019-04-21 433 585 2019-03-22
legal advice 2019-04-24 11:22 9900 $5.26 260 2019-04-21 664 39 2019-04-14
refinance mortgage 2019-04-24 11:22 27100 $56.15 1959 2019-04-22 559 350 2019-03-20
legal services 2019-04-24 11:22 8100 $5.65 242 2019-04-21 186 130 2019-04-22
seo specialist 2019-04-24 11:22 2400 $17.10 234 2019-04-22 215 109 2019-03-18
debt consolidation 2019-04-24 11:22 90500 $37.31 3150 2019-04-21 437 721 2019-04-11
sem 2019-04-24 11:22 40500 $12.54 1012 2019-04-21 604 168 2019-03-12
consolidate definition 2019-04-24 11:22 14800 $6.30 368 2019-04-21 494 74 2019-03-26
pay per click advertising 2019-04-24 11:22 2400 $22.80 278 2019-04-21 576 48 2019-03-22
ppc advertising 2019-04-24 11:22 1900 $31.04 295 2019-04-21 636 46 2019-04-16
consolidation loans 2019-04-24 11:22 33100 $22.47 1274 2019-04-21 420 303 2019-04-11
seo sem 2019-04-24 11:22 1900 $9.78 147 2019-04-21 200 74 2019-04-24
define consolidate 2019-04-24 11:22 8100 $11.56 371 2019-04-21 560 66 2019-03-20
stocks 2019-04-24 11:22 201000 $3.33 1192 2019-04-21 821 145 2019-04-20
stock market 2019-04-24 11:22 1000000 $2.49 2019-04-21 900 2019-04-23
accountant 2019-04-24 11:22 74000 $7.02 1025 2019-04-21 752 136 2019-03-15
accounting software 2019-04-24 11:22 12100 $17.09 595 2019-04-21 533 112 2019-04-20
audit 2019-04-24 11:22 74000 $7.53 1069 2019-04-21 581 184 2019-04-08
irs audit 2019-04-24 11:22 5400 $33.80 558 2019-04-21 452 123 2019-03-23
tax audit help 2019-04-24 11:22 6600 $48.45 779 2019-04-21 234 333 2019-03-20
human resource management 2019-04-24 11:22 22200 $16.53 835 2019-04-21 593 141 2019-04-14
human resource management salary 2019-04-24 11:22 8100 $8.53 309 2019-04-21 378 82 2019-03-21
hr consulting 2019-04-24 11:22 2400 $8.07 149 2019-04-21 106 141 2019-03-22
consultant 2019-04-24 11:22 27100 $3.15 348 2019-04-21 423 82 2019-04-08
consulting 2019-04-24 11:22 27100 $3.28 356 2019-04-21 622 57 2019-02-10
management consulting 2019-04-24 11:22 12100 $9.46 417 2019-04-21 319 131 2019-04-25
weight loss surgery 2019-04-24 11:22 40500 $11.40 956 2019-04-21 561 170 2019-04-23
bariatric surgery 2019-04-24 11:22 74000 $11.14 1352 2019-04-21 449 301 2019-04-19
lasik eye surgery 2019-04-24 11:22 60500 $15.99 1489 2019-04-21 327 455 2019-03-18
plastic surgery 2019-04-24 11:22 90500 $5.00 943 2019-04-21 300 314 2019-04-05
miami plastic surgery 2019-04-24 11:22 6600 $5.24 205 2019-04-21 144 142 2019-04-06
plumber 2019-04-24 11:22 246000 $24.24 4427 2019-04-21 610 726 2019-04-06
plumbers near me 2019-04-24 11:22 135000 $24.73 3127 2019-04-21 390 802 2019-03-12
emergency plumber 2019-04-24 11:22 9900 $31.66 765 2019-04-21 85 900 2019-03-20
electrician school 2019-04-24 11:02 14800 $11.29 522 2019-04-21 151 346 2019-04-14
electrician near me 2019-04-24 11:02 49500 $14.93 1267 2019-04-21 320 396 2019-04-16
locksmith 2019-04-24 11:02 450000 $8.94 3495 2019-04-21 177 1975 2019-04-18
locksmith near me 2019-04-24 11:02 165000 $9.78 2021 2019-04-21 201 1005 2019-03-21
cruises 2019-04-24 11:02 301000 $2.64 2019-04-21 1000 2019-04-17
seo marketing 2019-04-24 11:02 5400 $17.90 381 2019-04-21 658 58 2019-03-22
vacation 2019-04-24 11:02 110000 $2.04 619 2019-04-22 727 85 2019-04-17
all inclusive vacations 2019-04-24 11:02 110000 $2.68 729 2019-04-21 276 264 2019-03-23
bankruptcy 2019-04-24 11:02 135000 $13.83 2206 2019-04-21 672 328 2019-04-11
local seo company 2019-04-24 11:02 1600 $19.81 205 2019-04-21 162 127 2019-04-17
filing bankruptcy 2019-04-24 11:02 18100 $14.42 682 2019-04-21 377 181 2019-03-19
chapter 11 bankruptcy 2019-04-24 11:02 27100 $9.26 664 2019-04-21 461 144 2019-04-04
company for seo 2019-04-24 11:02 480 $0.00 0 2019-04-21 331 2019-04-07
internet marketing services 2019-04-24 11:02 2900 $14.26 233 2019-04-21 336 69 2019-03-20
filing bankruptcy chapter 7 2019-04-24 11:02 6600 $17.35 420 2019-04-21 270 156 2019-04-23
search engine marketing agency 2019-04-24 11:02 880 $51.78 269 2019-04-21 167 161 2019-04-17
how to file bankruptcy 2019-04-24 11:02 5400 $15.75 353 2019-04-21 480 74 2019-04-13
search engine optimization company 2019-04-24 11:02 1600 $25.44 238 2019-04-21 293 81 2019-03-20
lawyer 2019-04-24 11:02 135000 $6.78 1439 2019-04-21 707 204 2019-04-10
search engine optimization services 2019-04-24 11:02 1000 $18.13 152 2019-04-21 350 43 2019-03-21
lawyer salary 2019-04-24 11:02 40500 $14.43 1101 2019-04-21 450 245 2019-04-11
immigration lawyer 2019-04-24 11:02 74000 $10.18 1281 2019-04-21 102 1256 2019-03-21
search engine optimization los angeles 2019-04-24 11:02 880 $10.99 106 2019-04-21 144 74 2019-03-20
austin seo consultants 2019-04-24 11:02 1300 $10.50 126 2019-04-21 248 51 2019-04-10
divorce lawyers 2019-04-24 11:02 33100 $27.01 1422 2019-04-21 161 883 2019-03-20
atlanta seo company 2019-04-24 11:02 1600 $23.99 230 2019-04-21 219 105 2019-03-16
divorce 2019-04-24 11:02 110000 $4.44 987 2019-04-21 720 137 2019-04-20
colorado seo company 2019-04-24 11:02 210 $133.86 266 2019-04-21 235 113 2019-04-19
divorce attorney 2019-04-24 11:02 33100 $31.96 1573 2019-04-21 178 884 2019-03-22
denver seo agency 2019-04-24 11:02 210 $46.49 141 2019-04-21 290 49 2019-04-21
attorney general texas 2019-04-24 11:02 110000 $4.67 1017 2019-04-21 507 201 2019-03-10
denver seo consultant 2019-04-24 11:02 1000 $134.44 507 2019-04-21 243 209 2019-04-08
attorney general 2019-04-24 11:02 165000 $4.21 1219 2019-04-21 968 126 2019-04-18
denver seo company 2019-04-24 11:02 1300 $78.13 419 2019-04-21 333 126 2019-04-10
attorney 2019-04-24 11:02 110000 $6.14 1199 2019-04-21 426 281 2019-04-22
denver seo services 2019-04-24 11:02 590 $55.90 233 2019-04-21 264 88 2019-04-07
family law attorney 2019-04-24 11:02 22200 $23.19 1023 2019-04-21 279 367 2019-04-25
apostas esportivas 2019-04-24 11:02 210 $0.00 0 2019-04-13 323 2019-03-24
chicago seo 2019-04-24 11:02 2400 $14.54 212 2019-04-21 215 99 2019-04-07
personal injury attorney 2019-04-24 11:02 22200 $125.26 2815 2019-04-21 287 981 2019-04-07
phoenix seo 2019-04-24 11:02 2400 $15.56 221 2019-04-21 172 128 2019-04-06
personal injury 2019-04-24 11:02 5400 $56.24 758 2019-04-21 416 182 2019-03-22
houston seo 2019-04-24 11:02 1900 $9.90 148 2019-04-21 236 63 2019-04-10
los angeles seo agency 2019-04-24 11:02 390 $0.00 0 2019-04-21 242 2019-03-19
san diego personal injury attorney 2019-04-24 11:02 2400 $103.14 688 2019-04-21 188 366 2019-03-14
ecommerce seo agency 2019-04-24 11:02 170 $32.37 107 2019-04-21 216 50 2019-04-24
casino games 2019-04-24 11:02 368000 $3.70 1825 2019-04-21 378 483 2019-03-19
atlanta personal injury lawyer 2019-04-24 11:02 2400 $175.32 946 2019-04-21 267 354 2019-03-22
internet roulette 2019-04-24 11:02 320 $7.58 55 2019-04-21 172 32 2019-03-21
family attorney 2019-04-24 11:02 6600 $15.26 389 2019-04-21 134 290 2019-02-07
cheap auto insurance 2019-04-24 11:02 90500 $37.32 3150 2019-04-21 441 714 2019-03-20
family law court 2019-04-24 11:02 1000 $8.97 100 2019-04-21 150 67 2019-03-21
travel health insurance 2019-04-24 11:02 8100 $8.92 318 2019-04-21 300 106 2019-04-06
homeowners insurance 2019-04-24 11:02 90500 $43.85 3470 2019-04-21 683 508 2019-03-08
car rental 2019-04-24 11:02 1500000 $3.35 2019-04-21 698 2019-04-20
cheap homeowners insurance 2019-04-24 11:02 5400 $28.25 501 2019-04-21 423 118 2019-04-08
homeowners insurance cost 2019-04-24 11:02 6600 $20.81 469 2019-04-21 477 98 2019-04-19
cheap car rentals 2019-04-24 11:02 450000 $2.98 2019-04-21 680 2019-03-18
best homeowners insurance 2019-04-24 11:02 8100 $25.27 594 2019-04-21 468 127 2019-04-13
health care 2019-04-24 11:02 74000 $4.89 825 2019-04-21 1000 83 2019-03-18
home insurance 2019-04-24 11:02 74000 $37.45 2799 2019-04-21 553 506 2019-04-07
home insurance quotes 2019-04-24 11:02 18100 $44.18 1334 2019-04-21 601 222 2019-03-17
irs payment 2019-04-24 11:02 135000 $4.17 1075 2019-04-21 529 203 2019-04-16
link building 2019-04-24 11:02 27100 $2.28 286 2019-04-21 726 39 2019-04-17
startup 2019-04-24 11:02 18100 $1.80 196 2019-04-21 1000 20 2019-04-23
domain stats 2019-04-24 11:02 30 $6.83 31 2019-04-22 306 10 2019-04-17
cheap house insurance 2019-04-24 11:02 880 $24.18 170 2019-04-21 503 34 2019-03-13
minimum viable product 2019-04-24 11:02 6600 $6.27 228 2019-04-21 513 44 2019-04-11
house insurance cost 2019-04-24 11:02 1600 $22.07 219 2019-04-21 479 46 2019-04-13
html editor 2019-04-24 11:02 22200 $4.27 371 2019-04-22 492 75 2019-04-14
insurance house 2019-04-24 11:02 1900 $17.52 209 2019-04-21 381 55 2019-03-26
small business startup loans 2019-04-24 11:02 5400 $23.23 446 2019-04-21 308 145 2019-03-22
link bait 2019-04-24 11:02 260 $0.00 0 2019-04-21 408 2019-04-21
how much is house insurance 2019-04-24 11:02 1300 $12.48 139 2019-04-21 484 29 2019-04-14
antivirus free 2019-04-24 11:02 90500 $3.33 739 2019-04-21 895 83 2019-04-18
insurance 2019-04-24 11:02 246000 $30.92 5123 2019-04-22 1000 512 2019-04-18
online loans 2019-04-24 11:02 74000 $9.38 1220 2019-04-21 202 604 2019-04-08
virus protection 2019-04-24 11:02 60500 $3.34 582 2019-04-21 832 70 2019-04-08
firewall 2019-04-24 11:02 49500 $8.20 885 2019-04-21 671 132 2019-03-13
car insurance 2019-04-24 11:02 301000 $53.87 8068 2019-04-22 861 937 2019-04-19
bad credit loans 2019-04-24 11:02 165000 $6.50 1582 2019-04-21 351 451 2019-03-15
network firewall 2019-04-24 11:02 12100 $14.42 537 2019-04-21 602 89 2019-04-19
casino 2019-04-24 11:02 673000 $3.37 2019-04-22 502 2019-04-13
firewalls 2019-04-24 11:02 4400 $9.54 232 2019-04-21 627 37 2019-04-19
online cloud 2019-04-24 11:02 170 $4.78 34 2019-04-21 1000 3 2019-04-09
payday loans 2019-04-24 11:02 368000 $4.24 1980 2019-04-21 234 846 2019-04-19
network firewall security 2019-04-24 11:02 4400 $22.37 387 2019-04-21 570 68 2019-04-11
slots online 2019-04-24 11:02 22200 $3.10 306 2019-04-21 387 79 2019-03-23
payday loans online 2019-04-24 11:02 165000 $5.26 1393 2019-04-21 204 683 2019-04-21
firewall security 2019-04-24 11:02 3600 $18.91 312 2019-04-21 561 56 2019-04-10
firewall definition 2019-04-24 11:02 6600 $7.07 245 2019-04-21 605 40 2019-04-14
payday loans near me 2019-04-24 11:02 90500 $4.18 847 2019-04-21 131 647 2019-04-15
hardware firewall 2019-04-24 11:02 2400 $7.13 139 2019-04-21 408 34 2019-04-12
payday loans no credit check 2019-04-24 11:02 14800 $6.59 378 2019-04-21 140 270 2019-04-09
bad credit payday loans 2019-04-24 11:02 12100 $3.23 219 2019-04-21 162 135 2019-04-16
home alarm 2019-04-24 11:02 2400 $26.08 302 2019-04-21 468 65 2019-04-10
home alarm systems 2019-04-24 11:02 18100 $31.62 1092 2019-04-21 448 244 2019-04-08
studentloan 2019-04-24 11:02 2900 $18.51 273 2019-04-21 884 31 2019-04-05
best home alarm systems 2019-04-24 11:02 2900 $15.57 246 2019-04-21 544 45 2019-04-06
student loans 2019-04-24 11:02 201000 $14.75 2911 2019-04-21 716 407 2019-04-17
student loan forgiveness 2019-04-24 11:02 110000 $7.72 1376 2019-04-21 362 380 2019-03-19
home alarm companies 2019-04-24 11:02 1900 $27.87 276 2019-04-21 453 61 2019-04-22
student loan consolidation 2019-04-24 11:02 33100 $35.56 1677 2019-04-21 524 320 2019-04-04
refinance student loans 2019-04-24 11:02 49500 $52.42 2692 2019-04-21 531 507 2019-04-14
diy home alarm systems 2019-04-24 11:02 1900 $10.40 153 2019-04-21 468 33 2019-04-19
loan 2019-04-24 11:02 90500 $6.13 1066 2019-04-21 545 196 2019-03-15
slot machines 2019-04-24 10:02 246000 $3.78 1452 2019-04-21 471 308 2019-04-11
free casino games 2019-04-24 10:02 90500 $2.94 686 2019-04-21 448 153 2019-04-14
free slot games 2019-04-24 10:02 90500 $3.03 698 2019-04-21 445 157 2019-04-06
slots free with bonus 2019-04-24 10:02 110000 $5.41 1111 2019-04-21 238 467 2019-04-06
imrt 2019-04-24 10:02 2900 $2.33 79 2019-04-22 293 27 2019-02-25
seo expert 2019-04-24 10:02 3600 $20.33 326 2019-04-21 378 86 2019-04-20
small business seo services 2019-04-24 10:02 1300 $21.40 193 2019-04-21 170 114 2019-04-13
free conference call 2019-04-24 10:02 90500 $7.61 1213 2019-04-21 528 230 2019-04-24
family law lawyers 2019-04-24 10:02 3600 $23.77 358 2019-04-21 351 102 2019-04-04
auto insurance quotes 2019-04-24 10:02 90500 $61.66 4258 2019-04-21 696 612 2019-03-14
investment definition 2019-04-24 09:42 27100 $5.57 490 2019-04-21 531 92 2019-04-12
investment banking 2019-04-24 09:42 90500 $8.14 1263 2019-04-21 482 262 2019-03-19
investing in stocks 2019-04-24 09:42 33100 $12.49 895 2019-04-21 512 175 2019-03-19
how to invest 2019-04-24 09:42 9900 $4.32 231 2019-04-21 631 37 2019-03-25
copa america 2019-04-24 09:42 14800 $0.35 65 2019-04-21 445 15 2019-03-07
jackpot 2019-04-24 09:42 27100 $2.24 283 2019-04-21 355 80 2019-04-20
dating 2019-04-24 09:42 165000 $2.45 881 2019-04-21 460 192 2019-04-19
dating sites 2019-04-24 09:42 246000 $5.22 1762 2019-04-21 544 324 2019-03-12
hookup sites 2019-04-24 09:42 40500 $3.19 445 2019-04-21 180 247 2019-04-06
online dating 2019-04-24 09:42 40500 $4.12 519 2019-04-21 689 75 2019-04-07
dating websites 2019-04-24 09:42 40500 $5.10 590 2019-04-21 665 89 2019-03-21
free dating sites 2019-04-24 09:42 165000 $3.30 1053 2019-04-21 528 199 2019-03-22
dogeminer 2019-04-24 09:42 8100 $1.98 129 2019-04-22 285 45 2019-04-09
financial advisor 2019-04-24 09:42 74000 $35.24 2698 2019-04-21 388 695 2019-03-23
seo consultant 2019-04-24 09:42 4400 $19.02 351 2019-04-21 339 104 2019-03-13
seo consultant chicago 2019-04-24 09:42 390 $32.97 143 2019-04-21 168 85 2019-04-08
financial advisor near me 2019-04-24 09:42 8100 $28.00 631 2019-04-21 394 160 2019-03-22
seo consulting company 2019-04-24 09:42 320 $0.00 0 2019-04-21 235 2019-03-20
seo los angeles 2019-04-24 09:42 3600 $12.46 243 2019-04-21 215 113 2019-04-07
personal financial advisor 2019-04-24 09:42 2400 $22.44 276 2019-04-21 441 63 2019-04-09
seo company 2019-04-24 09:42 12100 $30.20 837 2019-04-21 319 262 2019-03-14
e commerce 2019-04-24 09:42 74000 $28.16 2359 2019-04-21 700 337 2019-04-05
seo company los angeles 2019-04-24 09:42 3600 $26.70 384 2019-04-21 172 223 2019-04-22
e commerce business 2019-04-24 09:42 4400 $19.06 352 2019-04-21 457 77 2019-04-25
seo agency 2019-04-24 09:42 4400 $25.90 423 2019-04-21 229 185 2019-04-24
isp 2019-04-24 09:42 60500 $6.54 871 2019-04-21 557 156 2019-04-17
seo agency los angeles 2019-04-24 09:42 590 $15.50 108 2019-04-21 217 50 2019-04-06
internet service providers 2019-04-24 09:42 60500 $12.92 1310 2019-04-21 378 347 2019-03-17
cheap flights 2019-04-24 09:42 4090000 $2.54 2019-04-21 929 2019-04-09
seo meaning 2019-04-24 09:42 4400 $5.47 166 2019-04-21 865 19 2019-03-14
cruise 2019-04-24 09:42 165000 $2.91 977 2019-04-21 1000 98 2019-04-14
seo definition 2019-04-24 09:42 5400 $5.98 197 2019-04-21 869 23 2019-04-06
bankruptcy lawyers 2019-04-24 09:42 22200 $26.31 1104 2019-04-21 145 761 2019-03-15
top seo companies 2019-04-24 09:42 1600 $25.45 238 2019-04-21 369 64 2019-04-21
top seo agency 2019-04-24 09:42 590 $24.35 142 2019-04-21 257 55 2019-03-15
bankruptcy attorney 2019-04-24 09:42 14800 $27.74 896 2019-04-21 268 334 2019-03-18
best seo agency 2019-04-24 09:42 590 $39.06 188 2019-04-21 383 49 2019-03-19
divorce lawyer 2019-04-24 09:42 22200 $32.03 1242 2019-04-21 257 483 2019-04-19
family law 2019-04-24 09:42 27100 $17.14 961 2019-04-21 379 254 2019-04-07
auto insurance 2019-04-24 09:42 201000 $56.70 6530 2019-04-21 602 1085 2019-03-22
business news 2019-04-24 09:42 33100 $6.53 607 2019-04-21 945 64 2019-02-08
car insurance companies 2019-04-24 09:42 33100 $45.77 1952 2019-04-21 585 334 2019-03-20
business cards 2019-04-24 09:42 368000 $8.91 3092 2019-04-21 438 706 2019-04-12
car insurance florida 2019-04-24 09:42 33100 $81.49 2759 2019-04-21 279 989 2019-03-22
business credit cards 2019-04-24 09:42 27100 $58.03 1998 2019-04-21 490 408 2019-04-22
cheap car insurance 2019-04-24 09:42 165000 $37.50 4527 2019-04-21 349 1297 2019-04-04
lose weight 2019-04-24 09:42 90500 $1.84 518 2019-04-21 666 78 2019-03-17
health insurance companies 2019-04-24 09:42 27100 $7.33 577 2019-04-21 603 96 2019-03-21
website builder 2019-04-24 09:42 90500 $26.67 2575 2019-04-22 901 286 2019-04-05
loans 2019-04-24 09:42 135000 $5.73 1300 2019-04-21 399 326 2019-04-19
set alarm for 30 minutes 2019-04-24 09:42 60500 $12.07 1258 2019-04-21 164 767 2019-04-08
online payday loans no credit check 2019-04-24 09:42 9900 $8.02 336 2019-04-21 138 243 2019-04-22
home security alarm 2019-04-24 09:42 1600 $27.88 252 2019-04-21 476 53 2019-03-15
home security alarm systems 2019-04-24 09:42 1300 $28.02 226 2019-04-21 459 49 2019-04-04
personal loans no credit check 2019-04-24 09:42 14800 $4.80 313 2019-04-21 206 152 2019-04-08
wireless home alarm systems 2019-04-24 09:42 1300 $18.46 176 2019-04-21 333 53 2019-04-07
personal loans 2019-04-24 09:42 165000 $16.95 2811 2019-04-21 453 621 2019-04-06
security cameras 2019-04-24 09:42 165000 $5.30 1400 2019-04-21 568 246 2019-04-11
personal loans for bad credit 2019-04-24 09:42 74000 $7.10 1032 2019-04-21 325 318 2019-03-15
security 2019-04-24 09:42 201000 $3.31 1188 2019-04-21 744 160 2019-04-21
home equity loan 2019-04-24 09:42 74000 $25.12 2202 2019-04-21 661 333 2019-04-06
best home security system 2019-04-24 09:42 22200 $12.22 697 2019-04-21 500 139 2019-03-18
home equity loan calculator 2019-04-24 09:42 18100 $8.24 487 2019-04-21 437 111 2019-03-22
home security systems 2019-04-24 09:42 60500 $34.58 2365 2019-04-21 335 706 2019-03-14
home equity loan rates 2019-04-24 09:42 27100 $15.20 894 2019-04-21 574 156 2019-04-16
security systems 2019-04-24 09:42 49500 $26.00 1768 2019-04-21 433 408 2019-04-18
best home security camera 2019-04-24 09:42 18100 $3.89 310 2019-04-21 588 53 2019-04-12
responsive web design 2019-04-24 09:42 8100 $19.55 509 2019-04-22 1000 51 2019-04-05
wireless security camera system 2019-04-24 09:42 27100 $4.76 446 2019-04-21 501 89 2019-04-11
crm software 2019-04-24 09:42 27100 $50.88 1846 2019-04-22 643 287 2019-03-16
equity loan 2019-04-24 09:42 8100 $18.30 489 2019-04-21 630 78 2019-04-22
surveillance camera 2019-04-24 09:42 60500 $3.34 582 2019-04-21 538 108 2019-03-22
hedge fund 2019-04-24 09:42 74000 $4.50 785 2019-04-22 509 154 2019-04-22
mortgage 2019-04-24 09:42 135000 $29.29 3461 2019-04-21 755 458 2019-04-06
chiropractic 2019-04-24 09:42 550000 $6.79 3342 2019-04-21 733 456 2019-04-22
mortgage rates 2019-04-24 09:42 301000 $12.49 3356 2019-04-21 738 455 2019-03-22
bitcoin stock 2019-04-24 09:42 74000 $2.25 518 2019-04-21 767 68 2019-03-22
reverse mortgage 2019-04-24 09:42 74000 $47.64 3233 2019-04-22 597 542 2019-03-20
mortgage payment calculator 2019-04-24 09:42 368000 $3.37 2019-04-21 581 2019-03-20
legal help 2019-04-24 09:42 2400 $3.67 93 2019-04-21 485 19 2019-04-21
seo tools 2019-04-24 09:42 8100 $10.54 351 2019-04-22 717 49 2019-04-16
free lawyer consultation 2019-04-24 09:42 8100 $6.98 274 2019-04-21 241 114 2019-04-08
local plumbers 2019-04-24 09:02 8100 $22.86 559 2019-04-21 268 209 2019-04-11
legionella training 2019-04-24 09:02 20 $0.81 9 2019-04-21 158 6 2019-03-20
electrician 2019-04-24 09:02 165000 $15.43 2657 2019-04-21 510 521 2019-04-23
how much do electricians make 2019-04-24 09:02 8100 $11.12 363 2019-04-21 386 94 2019-04-09
panel surya portabel 2019-04-24 09:02 0 $0.00 0 2019-03-20 174 2019-03-12
automotive locksmith 2019-04-24 09:02 9900 $7.93 333 2019-04-21 90 370 2019-04-24
auto locksmith 2019-04-24 09:02 12100 $8.67 396 2019-04-21 85 466 2019-03-12
car locksmith 2019-04-24 09:02 18100 $9.90 544 2019-04-21 75 725 2019-04-06
car locksmith near me 2019-04-24 09:02 9900 $9.36 368 2019-04-21 139 265 2019-03-23
made in china 2019-04-24 09:02 12100 $0.41 63 2019-04-21 538 12 2019-03-26
mobile locksmith 2019-04-24 09:02 8100 $9.19 324 2019-04-21 62 523 2019-04-14
alibaba 2019-04-24 09:02 550000 $0.27 2019-04-21 965 2019-04-17
take out 2019-04-24 09:02 60500 $2.21 454 2019-04-21 485 94 2019-04-13
take out near me 2019-04-24 09:02 135000 $3.21 919 2019-04-21 357 257 2019-03-21
chinese take out 2019-04-24 09:02 22200 $3.60 335 2019-04-21 430 78 2019-04-05
take out food near me 2019-04-24 09:02 27100 $3.38 363 2019-04-21 533 68 2019-04-05
electronic cigarette 2019-04-24 09:02 33100 $0.22 79 2019-04-21 778 10 2019-04-25
take out restaurants 2019-04-24 09:02 18100 $3.25 279 2019-04-21 468 60 2019-03-18
vape 2019-04-24 09:02 450000 $0.12 2019-04-21 260 2019-04-17
web developer 2019-04-24 09:02 33100 $22.54 1276 2019-04-21 528 242 2019-04-06
freelance web developer 2019-04-24 09:02 3600 $19.68 320 2019-04-22 358 89 2019-04-16
truck accident lawyer 2019-04-24 09:02 2900 $262.15 1338 2019-04-22 213 628 2019-03-24
front end web developer 2019-04-24 09:02 2400 $21.08 265 2019-04-21 523 51 2019-03-24
kadal 2019-04-24 09:02 480 $0.00 0 2019-04-22 494 2019-04-14
web development company 2019-04-24 09:02 2900 $36.92 413 2019-04-21 345 120 2019-04-06
full stack web developer 2019-04-24 09:02 2400 $22.98 280 2019-04-21 391 72 2019-03-20
domain 2019-04-24 09:02 90500 $14.46 1784 2019-04-21 1000 178 2019-04-17
domain name 2019-04-24 09:02 60500 $39.33 2555 2019-04-21 1000 256 2019-04-22
casino online 2019-04-24 09:02 74000 $2.40 538 2019-04-21 508 2019-03-06
casino bonus 2019-04-24 09:02 14800 $3.58 262 2019-04-22 259 101 2019-04-20
domains 2019-04-24 09:02 18100 $12.72 632 2019-04-21 1000 63 2019-04-19
mobile casino 2019-04-24 09:02 12100 $3.74 239 2019-04-22 213 112 2019-03-31
website 2019-04-24 09:02 74000 $11.72 1394 2019-04-21 1000 139 2019-04-21
new casinos 2019-04-24 09:02 0 $0.00 0 2019-03-20 174 2019-03-22
create a website 2019-04-24 09:02 40500 $22.34 1432 2019-04-21 1000 143 2019-04-14
free spins 2019-04-24 09:02 9900 $2.62 171 2019-04-22 153 112 2019-04-20
website design 2019-04-24 09:02 49500 $19.77 1500 2019-04-21 367 409 2019-04-09
casino blackjack 2019-04-24 09:02 5400 $2.47 116 2019-04-22 413 28 2019-03-15
webdesign 2019-04-24 09:02 2900 $19.49 281 2019-04-21 912 31 2019-04-21
casino slots 2019-04-24 09:02 40500 $3.84 498 2019-04-22 344 145 2019-04-03
hosting 2019-04-24 09:02 22200 $17.61 867 2019-04-21 1000 87 2019-04-11
web hosting 2019-04-24 09:02 27100 $36.11 1503 2019-04-21 1000 150 2019-04-03
uk slots 2019-04-24 09:02 880 $2.96 48 2019-04-21 201 24 2019-04-12
hotels 2019-04-24 09:02 13600000 $2.79 2019-04-21 1000 2019-04-18
hotels near me 2019-04-24 09:02 2240000 $2.77 2019-04-21 458 2019-03-12
new orleans hotels 2019-04-24 09:02 368000 $3.75 1839 2019-04-21 581 317 2019-03-12
cheap hotels 2019-04-24 09:02 450000 $3.15 2019-04-21 797 2019-03-23
chicago hotels 2019-04-24 09:02 450000 $3.98 2019-04-21 581 2019-04-07
nyc hotels 2019-04-24 09:02 368000 $4.28 1991 2019-04-21 600 332 2019-04-24
online survey maker 2019-04-24 09:02 590 $11.76 92 2019-04-22 684 13 2019-03-07
las vegas hotels 2019-04-24 09:02 1000000 $3.37 2019-04-21 724 2019-04-08
b2b 2019-04-24 09:02 27100 $4.12 409 2019-04-21 558 73 2019-04-14
b2b marketing 2019-04-24 09:02 5400 $14.86 341 2019-04-21 393 87 2019-04-06
b2b sales 2019-04-24 09:02 5400 $6.63 210 2019-04-21 258 81 2019-04-24
b2b meaning 2019-04-24 09:02 4400 $3.44 126 2019-04-21 511 25 2019-04-13
marketing 2019-04-24 09:02 74000 $3.93 724 2019-04-21 613 118 2019-04-18
poker 2019-04-24 09:02 301000 $2.16 2019-04-21 709 2019-04-18
slots 2019-04-24 09:02 673000 $4.50 2019-04-21 432 2019-03-14
buy in 2019-04-24 09:02 5400 $9.12 254 2019-04-21 528 48 2019-04-19
free slots 2019-04-24 09:02 301000 $2.70 2019-04-21 371 2019-04-08
slot games 2019-04-24 09:02 110000 $3.77 895 2019-04-21 470 190 2019-03-21
casino slot machines 2019-04-24 09:02 74000 $5.11 847 2019-04-21 604 140 2019-04-06
bet 2019-04-24 09:02 201000 $2.88 1093 2019-04-21 975 112 2019-03-12
sports betting 2019-04-24 09:02 27100 $3.13 346 2019-04-21 558 62 2019-03-22
bet meaning 2019-04-24 09:02 9900 $4.76 245 2019-04-21 458 53 2019-04-07
broker 2019-04-24 09:02 40500 $9.27 845 2019-04-21 670 126 2019-04-20
mortgage broker 2019-04-24 09:02 18100 $24.11 928 2019-04-21 471 197 2019-03-14
online broker 2019-04-24 09:02 12100 $30.79 846 2019-04-21 458 185 2019-03-19
stock broker 2019-04-24 09:02 27100 $12.72 804 2019-04-21 529 152 2019-04-05
real estate broker 2019-04-24 09:02 22200 $3.99 356 2019-04-21 466 76 2019-04-13
real estate agent 2019-04-24 09:02 74000 $6.50 979 2019-04-21 439 223 2019-04-18
real estate investing 2019-04-24 09:02 33100 $11.53 853 2019-04-21 554 154 2019-04-16
domain name registration 2019-04-24 09:02 14800 $35.96 1047 2019-04-22 821 128 2019-03-20
investing 2019-04-24 09:02 135000 $5.37 1251 2019-04-21 833 150 2019-04-19
trading 2019-04-24 09:02 27100 $5.37 479 2019-04-21 814 59 2019-03-16
best investments 2019-04-24 09:02 9900 $5.74 275 2019-04-21 416 66 2019-03-13
investing money 2019-04-24 09:02 12100 $6.11 321 2019-04-21 572 56 2019-03-16
personal trainer 2019-04-24 09:02 60500 $4.51 697 2019-04-21 325 214 2019-03-12
how to invest in stocks 2019-04-24 09:02 33100 $8.29 700 2019-04-21 510 137 2019-03-16
cheap domain registration 2019-04-24 09:02 4400 $21.70 380 2019-04-21 333 114 2019-03-26
seo company new york 2019-04-24 09:02 1300 $24.26 208 2019-04-21 238 87 2019-04-14
e commerce website 2019-04-24 09:02 1900 $24.54 256 2019-04-21 588 44 2019-04-04
seo company nyc 2019-04-24 09:02 1300 $22.98 201 2019-04-21 255 79 2019-03-21
ecommerce 2019-04-24 09:02 49500 $24.54 1707 2019-04-21 824 169 2019-04-16
cheap airline tickets 2019-04-24 09:02 301000 $2.16 2019-04-21 846 2019-04-16
seo optimization 2019-04-24 09:02 3600 $14.44 266 2019-04-21 1000 27 2019-03-12
personal injury attorney near me 2019-04-24 09:02 2900 $129.86 878 2019-04-21 158 556 2019-03-17
new york seo agency 2019-04-24 09:02 720 $19.15 134 2019-04-21 116 116 2019-03-18
personal injury lawyer nyc 2019-04-24 09:02 2900 $112.60 806 2019-04-21 190 424 2019-04-15
business card template 2019-04-24 09:02 33100 $5.76 563 2019-04-21 336 168 2019-03-19
the general car insurance 2019-04-24 09:02 49500 $11.22 1068 2019-04-21 269 397 2019-03-19
business card design 2019-04-24 09:02 27100 $6.16 520 2019-04-21 517 101 2019-04-13
health insurance 2019-04-24 09:02 246000 $8.87 2422 2019-04-21 861 281 2019-04-13
business card size 2019-04-24 09:02 33100 $9.79 774 2019-04-21 211 367 2019-04-06
affordable health insurance 2019-04-24 09:02 22200 $8.93 577 2019-04-21 697 83 2019-03-16
opportunity synonym 2019-04-24 09:02 49500 $13.29 1182 2019-04-21 353 335 2019-03-22
health insurance quotes 2019-04-24 09:02 22200 $8.59 564 2019-04-21 513 110 2019-03-20
travel insurance 2019-04-24 09:02 246000 $8.26 2320 2019-04-21 778 298 2019-03-12
homeowners insurance florida 2019-04-24 09:02 9900 $19.60 574 2019-04-21 298 193 2019-03-20
health care vote 2019-04-24 09:02 49500 $10.96 1053 2019-04-21 565 186 2019-03-22
homeowners insurance quote 2019-04-24 09:02 14800 $48.29 1249 2019-04-21 607 206 2019-04-19
health care bill 2019-04-24 09:02 165000 $4.05 1191 2019-04-21 391 305 2019-03-18
senate republican health care bill 2019-04-24 09:02 49500 $7.35 828 2019-04-21 607 136 2019-03-21
smartphone 2019-04-24 09:02 74000 $3.19 638 2019-04-21 853 75 2019-04-23
house insurance 2019-04-24 09:02 9900 $31.61 764 2019-04-21 693 110 2019-03-19
seo 2019-04-24 09:02 110000 $14.82 2034 2019-04-21 1000 203 2019-04-13
house insurance companies 2019-04-24 09:02 880 $35.38 214 2019-04-21 561 38 2019-03-15
cell phone 2019-04-24 09:02 135000 $5.11 1214 2019-04-21 620 196 2019-04-14
wordpress 2019-04-24 09:02 450000 $1.42 2019-04-22 1000 2019-04-18
house insurance quote 2019-04-24 09:02 1000 $36.42 232 2019-04-21 669 35 2019-04-06
home equity loan bad credit 2019-04-24 09:02 6600 $7.90 262 2019-04-21 226 116 2019-03-14
video surveillance 2019-04-24 09:02 5400 $4.04 156 2019-04-21 459 34 2019-04-14
car accident lawyer 2019-04-24 09:02 22200 $209.61 3834 2019-04-22 182 2107 2019-04-18
how does a home equity loan work 2019-04-24 09:02 6600 $15.90 399 2019-04-21 486 82 2019-03-18
surveillance system 2019-04-24 09:02 9900 $4.51 238 2019-04-21 518 46 2019-03-18
injury lawyer 2019-04-24 09:02 14800 $118.43 2140 2019-04-21 268 799 2019-03-16
credit card 2019-04-24 09:02 301000 $16.10 3909 2019-04-21 883 443 2019-03-22
attorney at law 2019-04-24 09:02 14800 $15.26 626 2019-04-21 181 346 2019-03-20
free website 2019-04-24 09:02 40500 $14.87 1121 2019-04-22 1000 112 2019-04-05
best credit cards 2019-04-24 09:02 135000 $14.13 2235 2019-04-21 495 452 2019-03-21
free legal advice 2019-04-24 09:02 22200 $3.42 324 2019-04-21 287 113 2019-04-24
drupal 2019-04-24 09:02 33100 $11.39 847 2019-04-22 737 115 2019-04-18
credit card consolidation 2019-04-24 09:02 14800 $26.59 873 2019-04-21 354 247 2019-04-17
free lawyers 2019-04-24 09:02 5400 $3.89 153 2019-04-21 260 59 2019-03-14
business loans 2019-04-24 09:02 40500 $51.34 2359 2019-04-22 564 418 2019-03-23
debt 2019-04-24 09:02 33100 $5.69 559 2019-04-21 561 100 2019-03-21
lifeboat inspection 2019-04-24 08:02 10 $0.00 0 2019-04-08 47 2019-03-19
crane inspection 2019-04-24 08:02 480 $5.02 50 2019-04-08 131 38 2019-03-18
rigging 2019-04-24 08:02 18100 $2.27 225 2019-04-08 241 93 2019-04-17
Keyword Last Crawl Search Volume CPC Commercial Value Last Update of Volume/CPC SEO Difficulty (beta) KEI (beta) Last Update of
SEO Difficulty & KEI